createdAt,value
2023-01-07T00:00:11.893Z,98.46
2023-01-07T00:01:11.823Z,98.51
2023-01-07T00:02:11.806Z,98.61
2023-01-07T00:03:11.759Z,98.57
2023-01-07T00:04:11.914Z,98.57
2023-01-07T00:05:11.805Z,98.97
2023-01-07T00:06:11.714Z,99.43
2023-01-07T00:07:11.988Z,99.33
2023-01-07T00:08:12.683Z,99.18
2023-01-07T00:09:11.663Z,99.54
2023-01-07T00:10:11.646Z,99.38
2023-01-07T00:11:11.666Z,98.82
2023-01-07T00:12:11.633Z,99.22
2023-01-07T00:13:11.594Z,99.12
2023-01-07T00:14:11.587Z,99.12
2023-01-07T00:15:11.546Z,99.59
2023-01-07T00:16:11.574Z,99.33
2023-01-07T00:17:11.548Z,99.49
2023-01-07T00:18:11.495Z,98.82
2023-01-07T00:19:11.474Z,99.22
2023-01-07T00:20:11.783Z,99.22
2023-01-07T00:21:11.536Z,98.57
2023-01-07T00:22:11.477Z,99.22
2023-01-07T00:23:11.421Z,99.28
2023-01-07T00:24:11.420Z,99.22
2023-01-07T00:25:11.382Z,99.18
2023-01-07T00:26:11.362Z,98.51
2023-01-07T00:27:11.386Z,99.43
2023-01-07T00:28:11.328Z,98.77
2023-01-07T00:29:11.316Z,98.67
2023-01-07T00:30:11.298Z,98.87
2023-01-07T00:31:11.310Z,98.51
2023-01-07T00:32:11.306Z,99.49
2023-01-07T00:33:11.239Z,99.02
2023-01-07T00:34:11.249Z,99.43
2023-01-07T00:35:11.215Z,99.38
2023-01-07T00:36:11.243Z,99.54
2023-01-07T00:37:11.263Z,99.49
2023-01-07T00:38:11.149Z,99.59
2023-01-07T00:39:11.146Z,98.97
2023-01-07T00:40:11.112Z,98.97
2023-01-07T00:41:11.102Z,98.46
2023-01-07T00:42:11.127Z,98.61
2023-01-07T00:43:11.054Z,98.82
2023-01-07T00:44:11.057Z,99.43
2023-01-07T00:45:11.028Z,99.28
2023-01-07T00:46:11.096Z,99.43
2023-01-07T00:47:12.031Z,99.49
2023-01-07T00:48:10.989Z,99.18
2023-01-07T00:49:10.954Z,99.49
2023-01-07T00:50:10.940Z,99.18
2023-01-07T00:51:10.912Z,98.77
2023-01-07T00:52:10.935Z,98.77
2023-01-07T00:53:10.886Z,98.92
2023-01-07T00:54:10.907Z,99.18
2023-01-07T00:55:10.857Z,99.22
2023-01-07T00:56:10.839Z,99.18
2023-01-07T00:57:11.214Z,99.18
2023-01-07T00:58:10.809Z,99.18
2023-01-07T00:59:10.793Z,99.49
2023-01-07T01:00:10.794Z,98.87
2023-01-07T01:01:11.011Z,99.43
2023-01-07T01:02:11.956Z,99.54
2023-01-07T01:03:13.413Z,99.54
2023-01-07T01:04:11.007Z,99.63
2023-01-07T01:05:10.887Z,99.38
2023-01-07T01:06:10.665Z,99.38
2023-01-07T01:07:11.267Z,99.18
2023-01-07T01:08:10.634Z,99.43
2023-01-07T01:09:10.703Z,98.46
2023-01-07T01:10:11.075Z,98.77
2023-01-07T01:11:10.599Z,98.97
2023-01-07T01:12:10.611Z,98.67
2023-01-07T01:13:11.013Z,98.67
2023-01-07T01:14:10.537Z,97.95
2023-01-07T01:15:10.530Z,98.16
2023-01-07T01:16:11.353Z,98.05
2023-01-07T01:17:15.050Z,98.25
2023-01-07T01:18:10.793Z,98.05
2023-01-07T01:19:10.516Z,98.25
2023-01-07T01:20:10.571Z,98.16
2023-01-07T01:21:10.415Z,98.16
2023-01-07T01:22:10.388Z,98.10
2023-01-07T01:23:10.699Z,98.41
2023-01-07T01:24:10.382Z,98.30
2023-01-07T01:25:10.411Z,98.82
2023-01-07T01:26:10.330Z,98.61
2023-01-07T01:27:10.312Z,98.25
2023-01-07T01:28:10.383Z,98.51
2023-01-07T01:29:10.263Z,98.05
2023-01-07T01:30:10.251Z,98.67
2023-01-07T01:31:10.289Z,98.20
2023-01-07T01:32:10.219Z,98.05
2023-01-07T01:33:13.046Z,98.16
2023-01-07T01:34:11.222Z,98.16
2023-01-07T01:35:10.168Z,98.46
2023-01-07T01:36:11.991Z,97.85
2023-01-07T01:37:10.258Z,97.74
2023-01-07T01:38:10.445Z,98.36
2023-01-07T01:39:10.134Z,97.99
2023-01-07T01:40:10.094Z,97.85
2023-01-07T01:41:10.564Z,98.05
2023-01-07T01:42:10.045Z,98.25
2023-01-07T01:43:10.068Z,98.10
2023-01-07T01:44:11.129Z,97.89
2023-01-07T01:45:11.062Z,98.51
2023-01-07T01:46:10.337Z,97.95
2023-01-07T01:47:10.286Z,97.64
2023-01-07T01:48:10.002Z,98.10
2023-01-07T01:49:10.335Z,98.16
2023-01-07T01:50:09.907Z,98.05
2023-01-07T01:51:09.892Z,98.16
2023-01-07T01:52:09.880Z,98.20
2023-01-07T01:53:09.898Z,98.30
2023-01-07T01:54:09.871Z,98.16
2023-01-07T01:55:09.826Z,98.41
2023-01-07T01:56:09.820Z,98.25
2023-01-07T01:57:09.851Z,98.16
2023-01-07T01:58:09.846Z,98.20
2023-01-07T01:59:09.750Z,98.35
2023-01-07T02:00:09.751Z,98.51
2023-01-07T02:01:09.820Z,98.71
2023-01-07T02:02:09.782Z,98.82
2023-01-07T02:03:09.732Z,98.71
2023-01-07T02:04:09.668Z,98.92
2023-01-07T02:05:09.652Z,98.51
2023-01-07T02:06:09.634Z,98.51
2023-01-07T02:07:09.623Z,98.61
2023-01-07T02:08:09.636Z,98.51
2023-01-07T02:09:09.588Z,98.30
2023-01-07T02:10:09.568Z,98.82
2023-01-07T02:11:09.567Z,98.30
2023-01-07T02:12:09.534Z,98.20
2023-01-07T02:13:09.608Z,98.10
2023-01-07T02:14:09.493Z,98.30
2023-01-07T02:15:09.491Z,98.41
2023-01-07T02:16:09.493Z,98.61
2023-01-07T02:17:09.448Z,97.99
2023-01-07T02:18:09.469Z,98.41
2023-01-07T02:19:09.412Z,98.61
2023-01-07T02:20:09.422Z,98.30
2023-01-07T02:21:09.392Z,98.51
2023-01-07T02:22:09.354Z,98.55
2023-01-07T02:23:09.382Z,99.07
2023-01-07T02:24:09.372Z,98.96
2023-01-07T02:25:09.327Z,99.68
2023-01-07T02:26:09.283Z,99.63
2023-01-07T02:27:09.790Z,99.48
2023-01-07T02:28:09.298Z,99.58
2023-01-07T02:29:09.472Z,99.21
2023-01-07T02:30:09.224Z,99.83
2023-01-07T02:31:09.727Z,99.99
2023-01-07T02:32:09.545Z,99.73
2023-01-07T02:33:09.206Z,99.99
2023-01-07T02:34:09.266Z,99.79
2023-01-07T02:35:10.137Z,99.58
2023-01-07T02:36:09.152Z,98.76
2023-01-07T02:37:10.109Z,99.79
2023-01-07T02:38:09.142Z,99.68
2023-01-07T02:39:09.061Z,99.58
2023-01-07T02:40:09.403Z,99.79
2023-01-07T02:41:09.285Z,99.38
2023-01-07T02:42:10.041Z,99.99
2023-01-07T02:43:09.450Z,99.89
2023-01-07T02:44:08.985Z,99.38
2023-01-07T02:45:08.979Z,99.58
2023-01-07T02:46:08.986Z,99.38
2023-01-07T02:47:09.084Z,99.38
2023-01-07T02:48:09.027Z,99.58
2023-01-07T02:49:08.902Z,99.38
2023-01-07T02:50:08.872Z,99.07
2023-01-07T02:51:08.857Z,99.48
2023-01-07T02:52:08.843Z,98.96
2023-01-07T02:53:08.889Z,99.38
2023-01-07T02:54:08.814Z,99.58
2023-01-07T02:55:08.789Z,98.96
2023-01-07T02:56:08.781Z,99.79
2023-01-07T02:57:08.755Z,99.17
2023-01-07T02:58:08.758Z,99.38
2023-01-07T02:59:08.722Z,99.42
2023-01-07T03:00:08.723Z,99.83
2023-01-07T03:01:08.934Z,99.63
2023-01-07T03:02:08.683Z,99.83
2023-01-07T03:03:08.693Z,99.99
2023-01-07T03:04:08.695Z,99.99
2023-01-07T03:05:08.629Z,99.99
2023-01-07T03:06:08.613Z,99.99
2023-01-07T03:07:09.252Z,99.99
2023-01-07T03:08:08.599Z,99.99
2023-01-07T03:09:08.593Z,99.99
2023-01-07T03:10:08.766Z,99.93
2023-01-07T03:11:08.566Z,99.99
2023-01-07T03:12:08.503Z,99.99
2023-01-07T03:13:08.509Z,99.99
2023-01-07T03:14:08.635Z,99.52
2023-01-07T03:15:08.447Z,99.63
2023-01-07T03:16:09.224Z,99.52
2023-01-07T03:17:08.494Z,99.93
2023-01-07T03:18:08.437Z,99.63
2023-01-07T03:19:08.419Z,99.99
2023-01-07T03:20:08.376Z,99.99
2023-01-07T03:21:08.348Z,99.93
2023-01-07T03:22:08.326Z,99.99
2023-01-07T03:23:09.095Z,99.99
2023-01-07T03:24:09.199Z,99.99
2023-01-07T03:25:08.428Z,99.99
2023-01-07T03:26:08.301Z,99.99
2023-01-07T03:27:08.710Z,99.73
2023-01-07T03:28:08.653Z,99.73
2023-01-07T03:29:08.213Z,99.11
2023-01-07T03:30:08.245Z,99.73
2023-01-07T03:31:08.203Z,99.83
2023-01-07T03:32:08.155Z,99.68
2023-01-07T03:33:08.254Z,99.99
2023-01-07T03:34:08.137Z,99.58
2023-01-07T03:35:08.105Z,99.99
2023-01-07T03:36:08.099Z,99.52
2023-01-07T03:37:08.063Z,99.17
2023-01-07T03:38:08.097Z,99.01
2023-01-07T03:39:08.024Z,98.91
2023-01-07T03:40:08.031Z,99.83
2023-01-07T03:41:07.993Z,99.73
2023-01-07T03:42:07.983Z,99.73
2023-01-07T03:43:08.044Z,99.73
2023-01-07T03:44:07.958Z,99.99
2023-01-07T03:45:07.933Z,99.73
2023-01-07T03:46:07.943Z,99.99
2023-01-07T03:47:07.930Z,99.73
2023-01-07T03:48:07.920Z,99.99
2023-01-07T03:49:07.940Z,99.99
2023-01-07T03:50:07.856Z,99.83
2023-01-07T03:51:07.846Z,99.88
2023-01-07T03:52:07.812Z,99.83
2023-01-07T03:53:07.804Z,99.73
2023-01-07T03:54:07.829Z,99.93
2023-01-07T03:55:07.770Z,99.83
2023-01-07T03:56:07.745Z,99.99
2023-01-07T03:57:07.741Z,99.11
2023-01-07T03:58:07.714Z,99.83
2023-01-07T03:59:07.727Z,99.99
2023-01-07T04:00:07.675Z,99.83
2023-01-07T04:01:07.786Z,99.63
2023-01-07T04:02:07.875Z,99.77
2023-01-07T04:03:07.656Z,99.73
2023-01-07T04:04:07.688Z,99.83
2023-01-07T04:05:07.666Z,99.73
2023-01-07T04:06:07.615Z,99.63
2023-01-07T04:07:07.576Z,99.83
2023-01-07T04:08:07.554Z,99.83
2023-01-07T04:09:07.555Z,99.83
2023-01-07T04:10:07.512Z,99.83
2023-01-07T04:11:07.490Z,99.42
2023-01-07T04:12:07.492Z,99.52
2023-01-07T04:13:07.477Z,99.83
2023-01-07T04:14:07.470Z,99.99
2023-01-07T04:15:07.427Z,99.52
2023-01-07T04:16:07.417Z,99.21
2023-01-07T04:17:07.404Z,99.83
2023-01-07T04:18:07.388Z,99.32
2023-01-07T04:19:07.392Z,99.83
2023-01-07T04:20:07.341Z,99.42
2023-01-07T04:21:07.401Z,99.52
2023-01-07T04:22:07.346Z,99.99
2023-01-07T04:23:07.304Z,99.42
2023-01-07T04:24:07.325Z,99.42
2023-01-07T04:25:07.263Z,99.16
2023-01-07T04:26:07.582Z,99.83
2023-01-07T04:27:07.232Z,99.93
2023-01-07T04:28:07.209Z,99.83
2023-01-07T04:29:07.240Z,99.99
2023-01-07T04:30:07.211Z,99.52
2023-01-07T04:31:08.052Z,99.93
2023-01-07T04:32:07.149Z,99.63
2023-01-07T04:33:07.119Z,99.73
2023-01-07T04:34:07.139Z,99.83
2023-01-07T04:35:07.089Z,99.52
2023-01-07T04:36:07.080Z,99.63
2023-01-07T04:37:07.069Z,99.99
2023-01-07T04:38:07.048Z,99.99
2023-01-07T04:39:07.056Z,99.83
2023-01-07T04:40:06.998Z,99.47
2023-01-07T04:41:07.020Z,99.73
2023-01-07T04:42:06.981Z,99.77
2023-01-07T04:43:06.956Z,99.99
2023-01-07T04:44:06.983Z,99.99
2023-01-07T04:45:06.913Z,99.99
2023-01-07T04:50:46.019Z,99.99
2023-01-07T04:51:46.007Z,99.99
2023-01-07T04:52:46.069Z,99.99
2023-01-07T04:53:46.001Z,99.99
2023-01-07T04:54:45.948Z,99.99
2023-01-07T04:55:46.538Z,99.73
2023-01-07T04:56:45.908Z,99.99
2023-01-07T04:57:45.889Z,99.67
2023-01-07T04:58:45.902Z,99.77
2023-01-07T04:59:45.876Z,99.99
2023-01-07T05:00:45.852Z,99.99
2023-01-07T05:01:45.868Z,99.47
2023-01-07T05:02:45.809Z,99.99
2023-01-07T05:03:45.815Z,99.88
2023-01-07T05:04:45.810Z,99.77
2023-01-07T05:05:45.737Z,99.67
2023-01-07T05:06:45.730Z,99.98
2023-01-07T05:07:45.703Z,99.67
2023-01-07T05:08:45.722Z,99.67
2023-01-07T05:09:45.683Z,99.99
2023-01-07T05:10:46.810Z,99.99
2023-01-07T05:11:46.795Z,99.98
2023-01-07T05:12:46.785Z,99.52
2023-01-07T05:13:46.787Z,99.77
2023-01-07T05:14:46.773Z,99.73
2023-01-07T05:15:46.740Z,99.52
2023-01-07T05:16:46.777Z,99.01
2023-01-07T05:17:47.727Z,99.21
2023-01-07T05:18:46.704Z,99.63
2023-01-07T05:19:46.658Z,99.99
2023-01-07T05:20:46.641Z,99.99
2023-01-07T05:21:46.628Z,99.99
2023-01-07T05:22:46.623Z,99.57
2023-01-07T05:23:46.643Z,99.32
2023-01-07T05:24:46.649Z,99.16
2023-01-07T05:25:46.564Z,99.47
2023-01-07T05:26:46.547Z,99.83
2023-01-07T05:27:46.519Z,99.42
2023-01-07T05:28:46.527Z,99.99
2023-01-07T05:29:46.506Z,99.52
2023-01-07T05:30:46.536Z,99.99
2023-01-07T05:31:46.444Z,99.88
2023-01-07T05:32:46.435Z,99.99
2023-01-07T05:33:46.445Z,99.67
2023-01-07T05:34:46.395Z,99.99
2023-01-07T05:35:46.412Z,99.88
2023-01-07T05:36:46.352Z,99.98
2023-01-07T05:37:47.344Z,99.42
2023-01-07T05:38:46.373Z,99.99
2023-01-07T05:39:47.299Z,99.01
2023-01-07T05:40:48.297Z,98.85
2023-01-07T05:41:46.286Z,99.11
2023-01-07T05:42:46.262Z,99.21
2023-01-07T05:43:46.282Z,99.67
2023-01-07T05:44:46.229Z,99.57
2023-01-07T05:45:46.294Z,99.16
2023-01-07T05:46:46.192Z,99.63
2023-01-07T05:47:46.175Z,99.57
2023-01-07T05:48:46.214Z,99.26
2023-01-07T05:49:46.154Z,99.05
2023-01-07T05:50:46.130Z,99.67
2023-01-07T05:51:46.113Z,99.99
2023-01-07T05:52:46.111Z,99.47
2023-01-07T05:53:46.128Z,99.67
2023-01-07T05:54:46.084Z,99.99
2023-01-07T05:55:46.038Z,99.47
2023-01-07T05:56:46.123Z,99.57
2023-01-07T05:57:46.008Z,99.57
2023-01-07T05:58:46.025Z,99.67
2023-01-07T05:59:45.980Z,99.05
2023-01-07T06:00:45.960Z,99.88
2023-01-07T06:01:45.936Z,99.72
2023-01-07T06:02:45.918Z,99.99
2023-01-07T06:03:46.043Z,99.57
2023-01-07T06:04:45.933Z,99.99
2023-01-07T06:05:45.876Z,99.99
2023-01-07T06:06:45.856Z,99.82
2023-01-07T06:07:46.833Z,99.62
2023-01-07T06:08:45.883Z,99.93
2023-01-07T06:09:45.802Z,99.82
2023-01-07T06:10:45.774Z,99.99
2023-01-07T06:11:45.776Z,99.77
2023-01-07T06:12:45.818Z,99.16
2023-01-07T06:13:45.760Z,99.47
2023-01-07T06:14:45.721Z,99.32
2023-01-07T06:15:45.716Z,98.96
2023-01-07T06:16:45.680Z,98.60
2023-01-07T06:17:45.685Z,98.29
2023-01-07T06:18:45.693Z,98.19
2023-01-07T06:19:45.641Z,97.78
2023-01-07T06:20:45.614Z,97.67
2023-01-07T06:21:45.599Z,97.67
2023-01-07T06:22:45.577Z,97.37
2023-01-07T06:23:45.616Z,97.78
2023-01-07T06:24:45.551Z,97.88
2023-01-07T06:25:45.529Z,97.78
2023-01-07T06:26:45.597Z,98.19
2023-01-07T06:27:45.498Z,98.29
2023-01-07T06:28:45.604Z,97.78
2023-01-07T06:29:45.551Z,97.78
2023-01-07T06:30:45.499Z,97.67
2023-01-07T06:31:45.444Z,97.67
2023-01-07T06:32:45.456Z,97.88
2023-01-07T06:33:45.419Z,98.08
2023-01-07T06:34:45.419Z,97.78
2023-01-07T06:35:45.363Z,97.83
2023-01-07T06:36:45.360Z,97.73
2023-01-07T06:37:45.345Z,97.78
2023-01-07T06:38:45.350Z,97.37
2023-01-07T06:39:45.296Z,97.27
2023-01-07T06:40:45.281Z,97.27
2023-01-07T06:41:45.263Z,97.27
2023-01-07T06:42:45.271Z,96.95
2023-01-07T06:43:45.241Z,97.37
2023-01-07T06:44:45.308Z,97.16
2023-01-07T06:45:45.214Z,97.27
2023-01-07T06:46:45.215Z,97.67
2023-01-07T06:47:45.155Z,97.47
2023-01-07T06:48:45.151Z,97.99
2023-01-07T06:49:45.168Z,98.29
2023-01-07T06:50:45.102Z,98.08
2023-01-07T06:51:45.095Z,97.99
2023-01-07T06:52:45.084Z,97.88
2023-01-07T06:53:45.064Z,97.99
2023-01-07T06:54:47.545Z,98.08
2023-01-07T06:55:45.084Z,97.57
2023-01-07T06:56:45.038Z,97.47
2023-01-07T06:57:45.017Z,97.67
2023-01-07T06:58:44.972Z,98.39
2023-01-07T06:59:44.985Z,97.78
2023-01-07T07:00:45.037Z,98.08
2023-01-07T07:01:46.594Z,97.99
2023-01-07T07:02:45.956Z,97.57
2023-01-07T07:03:44.895Z,97.88
2023-01-07T07:04:44.909Z,97.57
2023-01-07T07:05:44.869Z,97.88
2023-01-07T07:06:44.842Z,97.57
2023-01-07T07:07:44.826Z,97.78
2023-01-07T07:08:44.810Z,97.67
2023-01-07T07:09:44.825Z,97.57
2023-01-07T07:10:44.780Z,97.57
2023-01-07T07:11:44.756Z,97.57
2023-01-07T07:12:44.733Z,97.99
2023-01-07T07:13:44.718Z,97.67
2023-01-07T07:14:44.731Z,97.88
2023-01-07T07:15:44.761Z,98.19
2023-01-07T07:16:44.734Z,97.67
2023-01-07T07:17:44.656Z,97.72
2023-01-07T07:18:44.642Z,97.67
2023-01-07T07:19:44.651Z,97.78
2023-01-07T07:20:44.608Z,97.52
2023-01-07T07:21:44.590Z,98.33
2023-01-07T07:22:44.578Z,98.44
2023-01-07T07:23:44.556Z,98.13
2023-01-07T07:24:44.604Z,97.99
2023-01-07T07:25:44.552Z,97.67
2023-01-07T07:26:44.565Z,97.78
2023-01-07T07:27:44.486Z,97.62
2023-01-07T07:28:44.468Z,97.52
2023-01-07T07:29:44.495Z,97.57
2023-01-07T07:30:47.602Z,97.88
2023-01-07T07:31:44.453Z,97.78
2023-01-07T07:32:44.479Z,97.67
2023-01-07T07:33:44.395Z,97.37
2023-01-07T07:34:44.479Z,97.20
2023-01-07T07:35:44.359Z,97.16
2023-01-07T07:36:44.377Z,97.62
2023-01-07T07:37:44.338Z,97.72
2023-01-07T07:38:44.299Z,97.10
2023-01-07T07:39:44.314Z,96.90
2023-01-07T07:40:44.271Z,97.52
2023-01-07T07:41:44.263Z,97.27
2023-01-07T07:43:11.295Z,97.57
2023-01-07T07:43:45.234Z,97.16
2023-01-07T07:44:44.227Z,97.16
2023-01-07T07:45:44.195Z,96.23
2023-01-07T07:46:44.329Z,96.34
2023-01-07T07:47:44.152Z,96.23
2023-01-07T07:48:44.218Z,96.44
2023-01-07T07:49:45.172Z,96.44
2023-01-07T07:50:44.169Z,96.14
2023-01-07T07:51:44.100Z,96.23
2023-01-07T07:52:44.077Z,96.44
2023-01-07T07:53:44.077Z,95.93
2023-01-07T07:54:44.055Z,96.69
2023-01-07T07:55:44.057Z,96.69
2023-01-07T07:56:44.020Z,96.59
2023-01-07T07:57:43.992Z,97.20
2023-01-07T07:58:44.013Z,96.85
2023-01-07T07:59:44.010Z,97.57
2023-01-07T08:00:43.968Z,97.52
2023-01-07T08:01:43.990Z,97.41
2023-01-07T08:02:43.909Z,97.57
2023-01-07T08:03:43.989Z,97.16
2023-01-07T08:04:43.980Z,96.65
2023-01-07T08:05:43.854Z,96.65
2023-01-07T08:06:43.833Z,96.44
2023-01-07T08:07:43.826Z,96.03
2023-01-07T08:08:43.786Z,96.60
2023-01-07T08:09:43.823Z,95.68
2023-01-07T08:10:43.750Z,95.89
2023-01-07T08:11:43.758Z,95.17
2023-01-07T08:12:43.718Z,95.78
2023-01-07T08:13:43.702Z,95.47
2023-01-07T08:14:43.975Z,95.32
2023-01-07T08:15:44.695Z,94.85
2023-01-07T08:16:43.684Z,94.92
2023-01-07T08:17:43.646Z,95.12
2023-01-07T08:18:43.658Z,95.02
2023-01-07T08:19:43.639Z,95.32
2023-01-07T08:20:43.674Z,95.02
2023-01-07T08:21:43.611Z,94.30
2023-01-07T08:22:43.574Z,94.15
2023-01-07T08:23:43.567Z,94.05
2023-01-07T08:24:43.569Z,94.05
2023-01-07T08:25:43.498Z,93.54
2023-01-07T08:26:43.524Z,93.79
2023-01-07T08:27:43.489Z,93.85
2023-01-07T08:28:45.776Z,93.85
2023-01-07T08:29:43.452Z,94.05
2023-01-07T08:30:43.485Z,93.85
2023-01-07T08:31:43.491Z,93.74
2023-01-07T08:32:43.398Z,93.44
2023-01-07T08:33:43.391Z,93.89
2023-01-07T08:34:43.436Z,93.74
2023-01-07T08:35:43.352Z,93.38
2023-01-07T08:36:43.387Z,93.68
2023-01-07T08:37:43.312Z,93.64
2023-01-07T08:38:43.284Z,93.33
2023-01-07T08:39:43.261Z,93.64
2023-01-07T08:40:43.283Z,92.10
2023-01-07T08:41:43.275Z,92.31
2023-01-07T08:42:43.231Z,92.41
2023-01-07T08:43:43.206Z,92.72
2023-01-07T08:44:43.195Z,92.16
2023-01-07T08:45:43.212Z,92.16
2023-01-07T08:46:43.224Z,91.49
2023-01-07T08:47:44.813Z,92.10
2023-01-07T08:48:43.119Z,91.90
2023-01-07T08:49:43.113Z,92.55
2023-01-07T08:50:43.109Z,93.01
2023-01-07T08:51:43.107Z,93.79
2023-01-07T08:52:43.112Z,92.97
2023-01-07T08:53:43.061Z,92.70
2023-01-07T08:54:43.016Z,92.70
2023-01-07T08:55:43.026Z,93.63
2023-01-07T08:56:42.985Z,93.63
2023-01-07T08:57:42.974Z,93.63
2023-01-07T08:58:42.949Z,93.83
2023-01-07T08:59:42.936Z,94.04
2023-01-07T09:00:43.005Z,93.42
2023-01-07T09:01:43.083Z,93.52
2023-01-07T09:02:42.956Z,93.46
2023-01-07T09:03:42.870Z,94.24
2023-01-07T09:04:42.843Z,94.04
2023-01-07T09:05:42.885Z,94.04
2023-01-07T09:06:42.826Z,93.87
2023-01-07T09:07:42.790Z,94.39
2023-01-07T09:08:42.851Z,94.49
2023-01-07T09:09:43.768Z,95.31
2023-01-07T09:10:42.808Z,95.52
2023-01-07T09:11:42.726Z,95.77
2023-01-07T09:12:42.724Z,95.36
2023-01-07T09:13:42.699Z,95.56
2023-01-07T09:14:42.683Z,95.25
2023-01-07T09:15:42.732Z,95.83
2023-01-07T09:16:42.783Z,95.46
2023-01-07T09:17:42.632Z,95.36
2023-01-07T09:18:42.616Z,95.46
2023-01-07T09:19:42.593Z,96.18
2023-01-07T09:20:42.643Z,96.18
2023-01-07T09:21:42.558Z,96.08
2023-01-07T09:22:42.554Z,95.67
2023-01-07T09:23:42.519Z,96.80
2023-01-07T09:24:42.582Z,96.08
2023-01-07T09:25:42.526Z,95.42
2023-01-07T09:26:42.473Z,96.03
2023-01-07T09:27:42.466Z,95.89
2023-01-07T09:28:42.441Z,95.47
2023-01-07T09:29:42.438Z,95.57
2023-01-07T09:30:42.441Z,94.76
2023-01-07T09:31:42.442Z,94.81
2023-01-07T09:32:42.374Z,93.73
2023-01-07T09:33:42.360Z,94.40
2023-01-07T09:34:42.330Z,93.99
2023-01-07T09:35:42.415Z,93.99
2023-01-07T09:36:42.319Z,93.68
2023-01-07T09:37:42.287Z,93.89
2023-01-07T09:38:42.258Z,93.59
2023-01-07T09:39:43.267Z,93.89
2023-01-07T09:40:42.335Z,93.13
2023-01-07T09:41:42.319Z,93.27
2023-01-07T09:42:42.220Z,93.44
2023-01-07T09:44:00.863Z,92.93
2023-01-07T09:44:43.188Z,92.82
2023-01-07T09:45:42.270Z,92.41
2023-01-07T09:46:42.160Z,92.21
2023-01-07T09:47:42.132Z,92.31
2023-01-07T09:48:42.108Z,92.41
2023-01-07T09:49:42.110Z,92.66
2023-01-07T09:50:42.115Z,92.86
2023-01-07T09:51:42.058Z,92.66
2023-01-07T09:52:42.058Z,92.86
2023-01-07T09:53:42.037Z,93.07
2023-01-07T09:54:41.995Z,92.97
2023-01-07T09:56:09.921Z,93.21
2023-01-07T09:56:43.039Z,93.73
2023-01-07T09:57:41.955Z,93.07
2023-01-07T09:58:41.940Z,93.17
2023-01-07T09:59:41.937Z,92.66
2023-01-07T10:00:41.939Z,93.52
2023-01-07T10:01:41.899Z,93.38
2023-01-07T10:02:41.940Z,93.83
2023-01-07T10:03:41.940Z,93.73
2023-01-07T10:04:41.851Z,93.79
2023-01-07T10:05:41.875Z,93.89
2023-01-07T10:06:43.792Z,93.79
2023-01-07T10:07:42.788Z,93.07
2023-01-07T10:08:41.796Z,93.83
2023-01-07T10:09:41.754Z,93.93
2023-01-07T10:10:41.817Z,93.42
2023-01-07T10:11:43.457Z,93.17
2023-01-07T10:12:41.773Z,92.55
2023-01-07T10:13:41.691Z,92.35
2023-01-07T10:14:43.611Z,92.25
2023-01-07T10:15:41.731Z,92.25
2023-01-07T10:16:41.712Z,92.86
2023-01-07T10:17:41.650Z,92.04
2023-01-07T10:18:41.607Z,92.14
2023-01-07T10:19:42.461Z,92.76
2023-01-07T10:20:41.620Z,92.35
2023-01-07T10:21:41.563Z,92.80
2023-01-07T10:22:41.573Z,92.35
2023-01-07T10:23:41.520Z,92.76
2023-01-07T10:24:41.513Z,92.70
2023-01-07T10:25:41.537Z,93.73
2023-01-07T10:27:13.333Z,93.21
2023-01-07T10:27:41.459Z,93.32
2023-01-07T10:28:41.502Z,93.57
2023-01-07T10:29:41.415Z,93.87
2023-01-07T10:30:41.813Z,94.08
2023-01-07T10:31:42.416Z,94.49
2023-01-07T10:32:41.378Z,94.85
2023-01-07T10:33:41.339Z,94.14
2023-01-07T10:34:41.342Z,93.99
2023-01-07T10:35:41.344Z,94.04
2023-01-07T10:36:41.308Z,93.83
2023-01-07T10:37:41.281Z,94.14
2023-01-07T10:38:41.324Z,94.55
2023-01-07T10:39:41.241Z,94.14
2023-01-07T10:40:41.254Z,94.45
2023-01-07T10:41:41.207Z,94.76
2023-01-07T10:42:41.238Z,94.45
2023-01-07T10:43:41.193Z,93.83
2023-01-07T10:44:41.238Z,93.73
2023-01-07T10:45:41.262Z,93.73
2023-01-07T10:46:41.128Z,94.20
2023-01-07T10:47:41.129Z,93.59
2023-01-07T10:48:41.097Z,93.59
2023-01-07T10:49:41.074Z,93.93
2023-01-07T10:50:41.115Z,93.73
2023-01-07T10:51:41.049Z,93.21
2023-01-07T10:52:41.038Z,93.63
2023-01-07T10:53:41.023Z,93.52
2023-01-07T10:54:40.995Z,93.73
2023-01-07T10:55:41.030Z,93.52
2023-01-07T10:56:40.967Z,93.16
2023-01-07T10:57:40.943Z,93.77
2023-01-07T10:58:40.924Z,93.93
2023-01-07T10:59:40.975Z,93.42
2023-01-07T11:00:40.967Z,93.46
2023-01-07T11:01:41.065Z,93.57
2023-01-07T11:02:40.942Z,93.87
2023-01-07T11:03:40.856Z,93.83
2023-01-07T11:04:40.836Z,93.83
2023-01-07T11:05:40.801Z,94.14
2023-01-07T11:06:40.879Z,93.73
2023-01-07T11:07:40.769Z,93.73
2023-01-07T11:08:40.751Z,93.42
2023-01-07T11:09:40.739Z,92.91
2023-01-07T11:10:40.733Z,93.01
2023-01-07T11:11:40.736Z,92.29
2023-01-07T11:12:40.687Z,92.60
2023-01-07T11:13:40.671Z,92.40
2023-01-07T11:14:40.662Z,92.29
2023-01-07T11:15:40.631Z,92.14
2023-01-07T11:16:40.802Z,92.04
2023-01-07T11:17:40.611Z,91.94
2023-01-07T11:18:40.601Z,91.47
2023-01-07T11:19:40.560Z,92.08
2023-01-07T11:20:40.544Z,91.88
2023-01-07T11:21:42.468Z,92.60
2023-01-07T11:22:40.524Z,91.88
2023-01-07T11:23:42.767Z,92.19
2023-01-07T11:24:40.521Z,92.29
2023-01-07T11:25:40.475Z,92.08
2023-01-07T11:26:40.480Z,92.40
2023-01-07T11:27:40.436Z,92.91
2023-01-07T11:28:40.418Z,92.19
2023-01-07T11:29:40.398Z,91.99
2023-01-07T11:30:40.373Z,92.40
2023-01-07T11:31:40.422Z,92.23
2023-01-07T11:32:40.453Z,93.16
2023-01-07T11:34:03.295Z,92.64
2023-01-07T11:34:41.310Z,92.91
2023-01-07T11:35:40.312Z,92.13
2023-01-07T11:36:40.305Z,92.19
2023-01-07T11:37:40.262Z,92.08
2023-01-07T11:38:40.256Z,91.67
2023-01-07T11:39:40.216Z,92.33
2023-01-07T11:40:40.217Z,91.16
2023-01-07T11:41:40.220Z,91.78
2023-01-07T11:42:40.180Z,92.44
2023-01-07T11:43:41.165Z,92.44
2023-01-07T11:44:40.143Z,92.13
2023-01-07T11:45:40.145Z,93.05
2023-01-07T11:46:40.180Z,92.33
2023-01-07T11:47:40.083Z,92.23
2023-01-07T11:48:40.141Z,91.61
2023-01-07T11:49:40.072Z,91.93
2023-01-07T11:50:40.042Z,91.61
2023-01-07T11:51:40.048Z,92.23
2023-01-07T11:52:40.001Z,91.72
2023-01-07T11:53:39.994Z,91.61
2023-01-07T11:54:39.969Z,92.33
2023-01-07T11:55:39.954Z,91.61
2023-01-07T11:56:39.967Z,92.13
2023-01-07T11:57:39.933Z,92.33
2023-01-07T11:58:39.912Z,92.23
2023-01-07T11:59:39.905Z,92.33
2023-01-07T12:00:40.874Z,92.13
2023-01-07T12:01:39.901Z,92.23
2023-01-07T12:02:39.944Z,92.13
2023-01-07T12:03:39.893Z,92.27
2023-01-07T12:04:39.896Z,92.58
2023-01-07T12:05:39.812Z,92.74
2023-01-07T12:06:39.849Z,92.69
2023-01-07T12:07:41.887Z,92.07
2023-01-07T12:08:39.749Z,93.20
2023-01-07T12:09:39.729Z,93.10
2023-01-07T12:10:39.713Z,92.64
2023-01-07T12:11:39.713Z,92.64
2023-01-07T12:12:39.663Z,92.33
2023-01-07T12:13:39.652Z,92.38
2023-01-07T12:14:39.642Z,91.61
2023-01-07T12:15:39.617Z,92.13
2023-01-07T12:16:39.692Z,91.86
2023-01-07T12:17:39.604Z,92.13
2023-01-07T12:18:39.574Z,91.72
2023-01-07T12:19:39.618Z,91.61
2023-01-07T12:20:39.601Z,91.82
2023-01-07T12:21:39.549Z,91.10
2023-01-07T12:22:39.512Z,91.31
2023-01-07T12:23:39.487Z,90.94
2023-01-07T12:24:39.468Z,91.97
2023-01-07T12:25:39.455Z,92.07
2023-01-07T12:26:39.470Z,92.27
2023-01-07T12:27:39.425Z,91.51
2023-01-07T12:28:39.412Z,91.51
2023-01-07T12:29:39.396Z,91.55
2023-01-07T12:30:39.376Z,91.86
2023-01-07T12:31:39.453Z,91.76
2023-01-07T12:32:39.349Z,92.48
2023-01-07T12:33:39.312Z,92.27
2023-01-07T12:34:40.321Z,91.97
2023-01-07T12:35:39.281Z,92.38
2023-01-07T12:36:39.368Z,92.38
2023-01-07T12:37:39.251Z,92.27
2023-01-07T12:38:39.265Z,92.79
2023-01-07T12:39:39.218Z,92.58
2023-01-07T12:40:39.194Z,92.79
2023-01-07T12:41:39.212Z,92.99
2023-01-07T12:42:39.179Z,92.69
2023-01-07T12:43:39.157Z,92.48
2023-01-07T12:44:39.126Z,92.79
2023-01-07T12:45:39.123Z,92.79
2023-01-07T12:46:40.000Z,92.69
2023-01-07T12:47:39.091Z,92.79
2023-01-07T12:48:39.069Z,92.79
2023-01-07T12:49:39.053Z,92.33
2023-01-07T12:50:39.031Z,92.69
2023-01-07T12:51:39.045Z,92.69
2023-01-07T12:52:39.108Z,93.10
2023-01-07T12:53:38.984Z,92.58
2023-01-07T12:54:38.984Z,92.27
2023-01-07T12:55:38.953Z,92.48
2023-01-07T12:56:38.971Z,92.89